createdAt,value
2019-04-14T00:01:37.552Z,80.78
2019-04-14T00:05:45.091Z,80.96
2019-04-14T00:09:52.105Z,80.68
2019-04-14T00:13:58.932Z,80.40
2019-04-14T00:18:07.521Z,80.52
2019-04-14T00:22:14.304Z,80.42
2019-04-14T00:26:31.537Z,80.55
2019-04-14T00:30:38.492Z,81.17
2019-04-14T00:35:04.362Z,81.15
2019-04-14T00:39:27.274Z,81.21
2019-04-14T00:43:50.534Z,81.32
2019-04-14T00:48:20.865Z,81.93
2019-04-14T00:52:27.713Z,82.36
2019-04-14T00:56:34.655Z,82.25
2019-04-14T01:00:41.355Z,82.45
2019-04-14T01:04:49.129Z,82.09
2019-04-14T01:08:55.917Z,82.51
2019-04-14T01:13:02.789Z,82.06
2019-04-14T01:17:09.530Z,82.51
2019-04-14T01:21:17.359Z,82.27
2019-04-14T01:25:24.395Z,82.67
2019-04-14T01:29:31.984Z,82.21
2019-04-14T01:33:40.018Z,82.18
2019-04-14T01:37:46.998Z,82.39
2019-04-14T01:41:54.329Z,82.45
2019-04-14T01:46:09.697Z,82.45
2019-04-14T01:50:10.515Z,82.62
2019-04-14T01:54:43.554Z,82.16
2019-04-14T01:58:53.444Z,82.33
2019-04-14T02:03:00.181Z,82.58
2019-04-14T02:07:08.128Z,82.61
2019-04-14T02:11:15.862Z,82.57
2019-04-14T02:15:22.693Z,82.33
2019-04-14T02:19:30.559Z,82.70
2019-04-14T02:23:38.578Z,82.79
2019-04-14T02:27:45.365Z,82.74
2019-04-14T02:32:30.077Z,82.49
2019-04-14T02:40:47.372Z,82.32
2019-04-14T02:44:45.928Z,81.91
2019-04-14T02:48:55.492Z,81.82
2019-04-14T02:53:09.122Z,81.88
2019-04-14T02:57:12.474Z,81.63
2019-04-14T03:01:23.911Z,81.50
2019-04-14T03:05:26.459Z,81.28
2019-04-14T03:13:58.571Z,81.48
2019-04-14T03:18:35.603Z,81.23
2019-04-14T03:22:37.078Z,80.88
2019-04-14T03:27:10.136Z,80.98
2019-04-14T03:31:38.009Z,80.93
2019-04-14T03:35:50.963Z,81.09
2019-04-14T03:43:36.859Z,80.83
2019-04-14T03:48:02.107Z,81.04
2019-04-14T03:51:59.607Z,81.17
2019-04-14T03:56:37.868Z,81.17
2019-04-14T04:00:44.588Z,81.13
2019-04-14T04:04:51.367Z,81.10
2019-04-14T04:08:59.843Z,80.58
2019-04-14T04:13:06.654Z,80.25
2019-04-14T04:17:47.283Z,80.29
2019-04-14T04:22:19.332Z,80.12
2019-04-14T04:26:51.788Z,80.40
2019-04-14T04:31:26.505Z,80.07
2019-04-14T04:35:40.047Z,79.77
2019-04-14T04:39:47.647Z,79.86
2019-04-14T04:43:54.379Z,79.98
2019-04-14T04:48:02.315Z,79.62
2019-04-14T04:52:12.318Z,79.69
2019-04-14T04:56:18.681Z,79.18
2019-04-14T05:00:26.635Z,79.06
2019-04-14T05:04:33.504Z,78.66
2019-04-14T05:08:45.867Z,79.06
2019-04-14T05:13:10.068Z,78.20
2019-04-14T05:17:19.046Z,78.17
2019-04-14T05:21:25.832Z,77.75
2019-04-14T05:25:32.535Z,77.63
2019-04-14T05:29:39.275Z,77.49
2019-04-14T05:33:46.869Z,77.42
2019-04-14T05:37:55.072Z,76.87
2019-04-14T05:42:09.093Z,76.67
2019-04-14T05:46:12.073Z,76.12
2019-04-14T05:50:18.880Z,76.02
2019-04-14T05:54:25.797Z,75.78
2019-04-14T05:58:32.547Z,75.17
2019-04-14T06:02:39.963Z,74.78
2019-04-14T06:06:46.987Z,74.36
2019-04-14T06:10:53.686Z,74.15
2019-04-14T06:15:00.377Z,73.43
2019-04-14T06:19:07.389Z,73.74
2019-04-14T06:23:14.166Z,72.28
2019-04-14T06:27:20.999Z,71.83
2019-04-14T06:31:36.307Z,71.67
2019-04-14T06:35:56.263Z,71.43
2019-04-14T06:40:07.222Z,69.98
2019-04-14T06:44:14.102Z,70.15
2019-04-14T06:48:22.510Z,69.52
2019-04-14T06:52:29.470Z,68.74
2019-04-14T06:56:36.140Z,68.40
2019-04-14T07:00:42.852Z,67.51
2019-04-14T07:04:49.673Z,67.63
2019-04-14T07:08:56.634Z,67.34
2019-04-14T07:13:04.315Z,66.60
2019-04-14T07:17:11.042Z,65.65
2019-04-14T07:21:17.661Z,65.17
2019-04-14T07:25:24.434Z,65.30
2019-04-14T07:29:37.913Z,65.51
2019-04-14T07:34:02.213Z,64.87
2019-04-14T07:38:13.443Z,64.58
2019-04-14T07:42:37.007Z,64.03
2019-04-14T07:47:11.741Z,63.30
2019-04-14T07:51:31.579Z,63.55
2019-04-14T07:56:00.159Z,62.03
2019-04-14T08:00:14.968Z,62.63
2019-04-14T08:04:26.709Z,60.54
2019-04-14T08:08:33.530Z,59.65
2019-04-14T08:12:40.787Z,58.53
2019-04-14T08:16:48.115Z,58.77
2019-04-14T08:20:55.081Z,58.13
2019-04-14T08:25:02.236Z,56.36
2019-04-14T08:29:10.026Z,54.52
2019-04-14T08:33:16.907Z,53.01
2019-04-14T08:37:23.722Z,48.76
2019-04-14T08:41:36.920Z,48.02
2019-04-14T08:45:52.474Z,44.85
2019-04-14T08:50:39.307Z,45.31
2019-04-14T08:54:57.648Z,44.83
2019-04-14T08:59:26.177Z,44.10
2019-04-14T09:03:54.852Z,43.54
2019-04-14T09:08:24.543Z,42.46
2019-04-14T09:12:34.505Z,41.96
2019-04-14T09:16:41.469Z,42.02
2019-04-14T09:20:52.415Z,39.63
2019-04-14T09:24:57.107Z,39.99
2019-04-14T09:29:04.032Z,39.67
2019-04-14T09:33:11.028Z,39.38
2019-04-14T09:37:17.901Z,37.67
2019-04-14T09:41:24.821Z,38.93
2019-04-14T09:45:31.707Z,37.96
2019-04-14T09:49:38.387Z,37.77
2019-04-14T09:53:45.175Z,37.12
2019-04-14T09:57:53.728Z,36.35
2019-04-14T10:02:00.739Z,37.36
2019-04-14T10:06:07.549Z,36.53
2019-04-14T10:10:14.601Z,36.31
2019-04-14T10:14:21.476Z,36.96
2019-04-14T10:18:28.379Z,36.93
2019-04-14T10:22:35.337Z,36.34
2019-04-14T10:26:42.062Z,37.39
2019-04-14T10:30:49.117Z,37.66
2019-04-14T10:34:55.937Z,36.85
2019-04-14T10:39:04.394Z,36.76
2019-04-14T10:43:11.785Z,37.95
2019-04-14T10:47:18.518Z,36.90
2019-04-14T10:51:30.346Z,36.02
2019-04-14T10:55:33.878Z,34.98
2019-04-14T10:59:41.503Z,35.08
2019-04-14T11:03:48.375Z,33.93
2019-04-14T11:07:55.393Z,34.51
2019-04-14T11:12:02.373Z,35.01
2019-04-14T11:16:09.089Z,33.83
2019-04-14T11:20:16.486Z,32.94
2019-04-14T11:24:24.203Z,32.72
2019-04-14T11:28:34.146Z,32.08
2019-04-14T11:32:49.728Z,31.94
2019-04-14T11:37:28.673Z,31.03
2019-04-14T11:41:35.479Z,31.37
2019-04-14T11:45:42.351Z,31.82
2019-04-14T11:49:49.221Z,30.19
2019-04-14T11:53:56.084Z,29.23
2019-04-14T11:58:03.096Z,30.35
2019-04-14T12:02:19.262Z,30.53
2019-04-14T12:06:38.598Z,31.20
2019-04-14T12:10:45.417Z,31.71
2019-04-14T12:14:52.237Z,31.52
2019-04-14T12:18:59.082Z,31.71
2019-04-14T12:23:05.869Z,33.03
2019-04-14T12:27:13.037Z,31.52
2019-04-14T12:31:20.219Z,33.11
2019-04-14T12:35:30.056Z,33.93
2019-04-14T12:39:36.980Z,34.01
2019-04-14T12:44:11.744Z,32.32
2019-04-14T12:48:37.649Z,30.62
2019-04-14T12:52:45.899Z,32.62
2019-04-14T12:56:52.696Z,32.21
2019-04-14T13:01:04.864Z,32.46
2019-04-14T13:05:11.622Z,32.51
2019-04-14T13:09:18.333Z,31.81
2019-04-14T13:13:25.056Z,32.96
2019-04-14T13:17:31.820Z,33.95
2019-04-14T13:21:40.562Z,31.87
2019-04-14T13:25:47.612Z,32.56
2019-04-14T13:29:56.606Z,33.91
2019-04-14T13:34:05.085Z,35.05
2019-04-14T13:38:11.979Z,34.90
2019-04-14T13:42:18.846Z,36.57
2019-04-14T13:46:25.836Z,36.98
2019-04-14T13:50:32.599Z,38.18
2019-04-14T13:54:39.334Z,37.95
2019-04-14T13:58:46.124Z,38.00
2019-04-14T14:02:52.943Z,38.06
2019-04-14T14:06:59.768Z,37.74
2019-04-14T14:11:17.883Z,38.15
2019-04-14T14:15:45.950Z,38.15
2019-04-14T14:20:07.537Z,37.72
2019-04-14T14:24:47.246Z,37.94
2019-04-14T14:28:57.003Z,39.23
2019-04-14T14:33:05.145Z,38.05
2019-04-14T14:37:13.511Z,37.89
2019-04-14T14:41:21.230Z,39.46
2019-04-14T14:45:59.946Z,39.43
2019-04-14T14:50:29.559Z,40.04
2019-04-14T14:54:37.660Z,40.14
2019-04-14T14:58:46.282Z,40.58
2019-04-14T15:02:56.577Z,42.55
2019-04-14T15:07:03.563Z,42.57
2019-04-14T15:11:10.478Z,43.29
2019-04-14T15:15:17.506Z,43.41
2019-04-14T15:19:24.650Z,44.53
2019-04-14T15:23:31.581Z,44.07
2019-04-14T15:27:38.487Z,44.89
2019-04-14T15:31:45.301Z,44.54
2019-04-14T15:35:52.114Z,45.71
2019-04-14T15:39:58.944Z,45.95
2019-04-14T15:44:07.685Z,46.92
2019-04-14T15:48:25.265Z,47.40
2019-04-14T15:52:33.890Z,48.06
2019-04-14T15:57:05.908Z,48.91
2019-04-14T16:01:33.342Z,48.59
2019-04-14T16:06:04.144Z,49.39
2019-04-14T16:10:34.862Z,49.50
2019-04-14T16:15:03.217Z,48.74
2019-04-14T16:19:35.912Z,50.15
2019-04-14T16:23:50.425Z,50.73
2019-04-14T16:28:03.102Z,50.41
2019-04-14T16:32:29.800Z,51.57
2019-04-14T16:36:42.037Z,51.47
2019-04-14T16:40:50.409Z,52.31
2019-04-14T16:45:00.556Z,52.54
2019-04-14T16:49:09.944Z,52.88
2019-04-14T16:53:31.954Z,52.96
2019-04-14T16:58:16.033Z,53.12
2019-04-14T17:02:22.961Z,53.08
2019-04-14T17:06:29.850Z,53.69
2019-04-14T17:10:36.733Z,53.24
2019-04-14T17:14:51.328Z,53.33
2019-04-14T17:19:03.730Z,53.25
2019-04-14T17:23:29.121Z,52.99
2019-04-14T17:27:40.437Z,53.11
2019-04-14T17:32:08.352Z,53.13
2019-04-14T17:36:24.691Z,52.78
2019-04-14T17:40:39.545Z,53.27
2019-04-14T17:44:54.727Z,53.41
2019-04-14T17:49:20.708Z,53.29
2019-04-14T17:53:49.287Z,53.47
2019-04-14T17:58:28.244Z,53.33
2019-04-14T18:02:58.768Z,53.55
2019-04-14T18:07:31.242Z,54.05
2019-04-14T18:12:09.632Z,54.48
2019-04-14T18:16:40.139Z,54.87
2019-04-14T18:20:51.220Z,55.56
2019-04-14T18:25:02.161Z,55.01
2019-04-14T18:29:29.142Z,55.79
2019-04-14T18:34:00.094Z,55.29
2019-04-14T18:38:35.094Z,55.73
2019-04-14T18:43:01.765Z,55.56
2019-04-14T18:47:22.050Z,56.61
2019-04-14T18:51:35.437Z,56.64
2019-04-14T18:56:11.231Z,56.65
2019-04-14T19:00:42.738Z,57.17
2019-04-14T19:04:49.533Z,57.61
2019-04-14T19:08:57.261Z,57.76
2019-04-14T19:13:13.675Z,57.92
2019-04-14T19:17:31.674Z,58.23
2019-04-14T19:21:38.514Z,57.90
2019-04-14T19:25:45.661Z,58.38
2019-04-14T19:29:52.624Z,58.79
2019-04-14T19:33:59.338Z,58.68
2019-04-14T19:38:07.967Z,58.98
2019-04-14T19:42:15.186Z,59.31
2019-04-14T19:46:22.081Z,59.56
2019-04-14T19:50:29.258Z,59.80
2019-04-14T19:54:36.147Z,60.04
2019-04-14T19:58:43.145Z,60.44
2019-04-14T20:02:50.205Z,60.31
2019-04-14T20:06:56.944Z,60.51
2019-04-14T20:11:03.675Z,60.81
2019-04-14T20:15:30.803Z,61.46
2019-04-14T20:19:55.063Z,61.69
2019-04-14T20:24:18.868Z,61.39
2019-04-14T20:28:40.037Z,62.08
2019-04-14T20:32:47.056Z,62.22
2019-04-14T20:36:53.756Z,62.51
2019-04-14T20:41:04.617Z,62.97
2019-04-14T20:45:14.245Z,63.25
2019-04-14T20:49:21.128Z,63.14
2019-04-14T20:53:28.302Z,63.42
2019-04-14T20:57:35.105Z,63.50
2019-04-14T21:01:45.237Z,63.78
2019-04-14T21:06:23.213Z,63.47
2019-04-14T21:10:44.161Z,63.91
2019-04-14T21:15:26.946Z,63.89
2019-04-14T21:20:06.732Z,63.76
2019-04-14T21:24:40.521Z,63.87
2019-04-14T21:28:51.314Z,63.77
2019-04-14T21:33:10.702Z,64.13
2019-04-14T21:37:32.720Z,64.33
2019-04-14T21:41:39.377Z,64.33
2019-04-14T21:45:46.230Z,64.33
2019-04-14T21:49:53.541Z,64.36
2019-04-14T21:54:01.871Z,64.69
2019-04-14T21:58:42.632Z,65.10
2019-04-14T22:03:10.586Z,65.00
2019-04-14T22:07:51.544Z,64.93
2019-04-14T22:11:58.739Z,65.12
2019-04-14T22:16:05.660Z,65.10
2019-04-14T22:20:12.478Z,65.52
2019-04-14T22:24:19.909Z,65.92
2019-04-14T22:28:26.724Z,66.04
2019-04-14T22:32:47.117Z,66.20
2019-04-14T22:36:53.894Z,66.08
2019-04-14T22:41:10.120Z,66.49
2019-04-14T22:45:17.118Z,66.73
2019-04-14T22:49:23.885Z,67.01
2019-04-14T22:53:32.953Z,66.86
2019-04-14T22:57:40.028Z,67.85
2019-04-14T23:01:54.791Z,67.48
2019-04-14T23:06:23.596Z,67.95
2019-04-14T23:10:44.968Z,67.71
2019-04-14T23:15:03.588Z,67.88
2019-04-14T23:19:17.836Z,68.55
2019-04-14T23:23:43.522Z,68.52
2019-04-14T23:27:50.296Z,68.46
2019-04-14T23:31:57.214Z,68.20
2019-04-14T23:36:04.332Z,68.41
2019-04-14T23:40:13.019Z,69.05
2019-04-14T23:44:19.793Z,68.69
2019-04-14T23:48:26.588Z,69.35
2019-04-14T23:52:33.446Z,69.32
2019-04-14T23:56:40.148Z,68.84
